createdAt,value
2023-08-09T00:02:46.219Z,6.70
2023-08-09T00:05:48.562Z,7.30
2023-08-09T00:08:50.505Z,7.85
2023-08-09T00:11:52.594Z,7.18
2023-08-09T00:14:54.738Z,7.90
2023-08-09T00:17:56.736Z,6.47
2023-08-09T00:20:59.005Z,6.45
2023-08-09T00:24:01.384Z,6.07
2023-08-09T00:27:04.126Z,6.85
2023-08-09T00:30:09.796Z,7.47
2023-08-09T00:33:13.088Z,10.50
2023-08-09T00:36:17.369Z,5.38
2023-08-09T00:39:21.178Z,5.32
2023-08-09T00:42:24.533Z,5.03
2023-08-09T00:45:26.836Z,5.23
2023-08-09T00:48:28.695Z,5.67
2023-08-09T00:51:31.128Z,7.57
2023-08-09T00:54:34.020Z,5.97
2023-08-09T00:57:36.279Z,6.03
2023-08-09T01:00:38.411Z,5.90
2023-08-09T01:03:40.796Z,5.13
2023-08-09T01:06:47.937Z,5.47
2023-08-09T01:10:04.219Z,5.93
2023-08-09T01:13:07.972Z,6.95
2023-08-09T01:16:12.459Z,7.00
2023-08-09T01:19:40.883Z,5.13
2023-08-09T01:22:50.406Z,5.75
2023-08-09T01:25:52.669Z,7.65
2023-08-09T01:28:57.266Z,5.10
2023-08-09T01:31:59.496Z,5.03
2023-08-09T01:35:02.296Z,6.57
2023-08-09T01:38:12.121Z,6.45
2023-08-09T01:41:15.263Z,5.38
2023-08-09T01:44:18.346Z,9.73
2023-08-09T01:47:21.315Z,7.00
2023-08-09T01:50:26.033Z,6.47
2023-08-09T01:53:28.920Z,5.00
2023-08-09T01:56:31.588Z,8.40
2023-08-09T01:59:33.943Z,5.43
2023-08-09T02:02:36.688Z,6.37
2023-08-09T02:05:39.887Z,4.50
2023-08-09T02:08:44.697Z,5.25
2023-08-09T02:11:48.668Z,6.82
2023-08-09T02:14:52.188Z,8.07
2023-08-09T02:17:54.449Z,4.53
2023-08-09T02:20:57.193Z,6.07
2023-08-09T02:23:59.468Z,6.97
2023-08-09T02:27:01.664Z,8.25
2023-08-09T02:30:04.983Z,6.43
2023-08-09T02:33:09.791Z,8.63
2023-08-09T02:36:13.083Z,4.60
2023-08-09T02:39:17.473Z,6.30
2023-08-09T02:42:23.041Z,4.93
2023-08-09T02:45:25.051Z,5.45
2023-08-09T02:48:27.324Z,8.47
2023-08-09T02:51:29.890Z,4.13
2023-08-09T02:54:33.082Z,4.40
2023-08-09T02:57:35.189Z,8.70
2023-08-09T03:00:38.227Z,5.85
2023-08-09T03:03:40.305Z,5.07
2023-08-09T03:06:42.433Z,4.67
2023-08-09T03:09:44.633Z,6.45
2023-08-09T03:12:46.795Z,6.07
2023-08-09T03:15:49.005Z,6.65
2023-08-09T03:18:51.366Z,5.17
2023-08-09T03:21:54.037Z,6.70
2023-08-09T03:24:56.156Z,6.60
2023-08-09T03:27:58.512Z,6.40
2023-08-09T03:31:03.848Z,7.78
2023-08-09T03:34:06.469Z,9.20
2023-08-09T03:37:08.877Z,6.97
2023-08-09T03:40:13.792Z,5.90
2023-08-09T03:43:17.620Z,8.52
2023-08-09T03:46:19.880Z,9.20
2023-08-09T03:49:22.472Z,6.20
2023-08-09T03:52:24.928Z,5.00
2023-08-09T03:55:27.127Z,6.03
2023-08-09T03:58:29.305Z,8.63
2023-08-09T04:01:32.546Z,6.75
2023-08-09T04:04:36.127Z,7.07
2023-08-09T04:07:38.448Z,7.93
2023-08-09T04:10:40.764Z,8.93
2023-08-09T04:13:42.849Z,6.90
2023-08-09T04:16:45.240Z,7.45
2023-08-09T04:19:47.373Z,8.53
2023-08-09T04:22:49.375Z,5.87
2023-08-09T04:25:51.569Z,7.82
2023-08-09T04:28:56.282Z,8.32
2023-08-09T04:31:58.615Z,6.45
2023-08-09T04:35:00.706Z,6.97
2023-08-09T04:38:06.018Z,9.27
2023-08-09T04:41:08.193Z,6.60
2023-08-09T04:44:10.552Z,7.47
2023-08-09T04:47:13.483Z,13.05
2023-08-09T04:50:15.926Z,11.63
2023-08-09T04:53:17.851Z,10.37
2023-08-09T04:56:20.237Z,8.13
2023-08-09T04:59:22.456Z,9.38
2023-08-09T05:02:25.232Z,7.45
2023-08-09T05:05:29.721Z,10.63
2023-08-09T05:08:33.209Z,7.90
2023-08-09T05:11:35.460Z,9.20
2023-08-09T05:14:37.928Z,8.68
2023-08-09T05:17:40.172Z,12.35
2023-08-09T05:20:43.185Z,10.33
2023-08-09T05:23:45.504Z,10.13
2023-08-09T05:26:48.792Z,14.23
2023-08-09T05:29:50.938Z,9.35
2023-08-09T05:32:53.768Z,11.38
2023-08-09T05:35:57.018Z,10.03
2023-08-09T05:39:01.841Z,11.17
2023-08-09T05:42:08.292Z,11.20
2023-08-09T05:45:10.725Z,10.05
2023-08-09T05:48:13.602Z,8.05
2023-08-09T05:51:16.042Z,9.23
2023-08-09T05:54:19.733Z,6.77
2023-08-09T05:57:22.738Z,8.35
2023-08-09T06:00:25.859Z,7.85
2023-08-09T06:03:28.744Z,13.32
2023-08-09T06:06:31.104Z,12.20
2023-08-09T06:09:33.482Z,11.37
2023-08-09T06:12:35.964Z,10.63
2023-08-09T06:15:38.310Z,9.82
2023-08-09T06:18:40.337Z,11.38
2023-08-09T06:21:46.099Z,11.70
2023-08-09T06:24:48.216Z,8.07
2023-08-09T06:27:51.741Z,6.10
2023-08-09T06:30:54.112Z,7.00
2023-08-09T06:33:56.423Z,8.73
2023-08-09T06:36:58.608Z,7.43
2023-08-09T06:40:00.727Z,10.10
2023-08-09T06:43:02.712Z,6.88
2023-08-09T06:46:05.291Z,6.35
2023-08-09T06:49:08.561Z,11.50
2023-08-09T06:52:11.709Z,7.00
2023-08-09T06:55:14.825Z,5.10
2023-08-09T06:58:17.262Z,8.45
2023-08-09T07:01:19.665Z,5.28
2023-08-09T07:04:21.811Z,8.27
2023-08-09T07:07:24.218Z,4.50
2023-08-09T07:10:26.773Z,9.43
2023-08-09T07:13:31.474Z,6.82
2023-08-09T07:16:35.206Z,7.05
2023-08-09T07:19:37.456Z,9.02
2023-08-09T07:22:40.511Z,3.70
2023-08-09T07:25:42.559Z,5.77
2023-08-09T07:28:44.920Z,5.35
2023-08-09T07:31:47.237Z,5.80
2023-08-09T07:34:50.627Z,5.28
2023-08-09T07:37:53.754Z,5.83
2023-08-09T07:40:55.789Z,8.27
2023-08-09T07:43:58.105Z,8.73
2023-08-09T07:47:00.397Z,8.15
2023-08-09T07:50:02.680Z,6.22
2023-08-09T07:53:05.324Z,5.50
2023-08-09T07:56:07.612Z,5.37
2023-08-09T07:59:09.664Z,5.75
2023-08-09T08:02:11.839Z,5.43
2023-08-09T08:05:15.056Z,4.47
2023-08-09T08:08:18.900Z,4.23
2023-08-09T08:11:22.562Z,5.07
2023-08-09T08:14:24.902Z,3.67
2023-08-09T08:17:28.037Z,7.00
2023-08-09T08:20:30.484Z,4.95
2023-08-09T08:23:33.735Z,5.37
2023-08-09T08:26:36.538Z,4.07
2023-08-09T08:29:40.008Z,4.22
2023-08-09T08:32:42.717Z,4.43
2023-08-09T08:35:45.964Z,5.65
2023-08-09T08:38:48.216Z,4.73
2023-08-09T08:41:50.926Z,4.17
2023-08-09T08:44:53.541Z,6.63
2023-08-09T08:47:55.695Z,6.75
2023-08-09T08:50:58.467Z,5.13
2023-08-09T08:54:00.906Z,5.40
2023-08-09T08:57:06.333Z,4.67
2023-08-09T09:03:24.402Z,5.45
2023-08-09T09:06:26.738Z,4.75
2023-08-09T09:09:29.186Z,4.87
2023-08-09T09:12:31.554Z,2.47
2023-08-09T09:15:37.686Z,3.28
2023-08-09T09:18:44.458Z,4.28
2023-08-09T09:21:48.017Z,4.47
2023-08-09T09:24:50.310Z,4.17
2023-08-09T09:27:57.847Z,8.70
2023-08-09T09:31:00.185Z,4.63
2023-08-09T09:34:04.536Z,3.72
2023-08-09T09:37:07.007Z,4.18
2023-08-09T09:40:12.036Z,3.60
2023-08-09T09:43:15.059Z,4.60
2023-08-09T09:46:36.672Z,2.45
2023-08-09T09:49:52.153Z,3.40
2023-08-09T09:52:55.641Z,2.83
2023-08-09T09:55:59.702Z,2.40
2023-08-09T09:59:05.962Z,4.83
2023-08-09T10:02:12.811Z,5.18
2023-08-09T10:05:30.445Z,2.75
2023-08-09T10:08:34.238Z,1.38
2023-08-09T10:11:37.494Z,3.60
2023-08-09T10:14:40.034Z,1.70
2023-08-09T10:17:43.595Z,1.73
2023-08-09T10:20:52.179Z,2.13
2023-08-09T10:24:08.038Z,1.60
2023-08-09T10:27:13.004Z,1.47
2023-08-09T10:30:17.735Z,0.90
2023-08-09T10:33:21.719Z,1.73
2023-08-09T10:36:34.921Z,1.90
2023-08-09T10:39:37.793Z,1.85
2023-08-09T10:42:40.345Z,3.17
2023-08-09T10:45:42.448Z,2.83
2023-08-09T10:48:52.433Z,2.17
2023-08-09T10:51:56.376Z,3.53
2023-08-09T10:55:20.421Z,4.03
2023-08-09T10:58:32.148Z,3.47
2023-08-09T11:01:38.732Z,4.00
2023-08-09T11:04:41.653Z,2.38
2023-08-09T11:07:47.006Z,2.95
2023-08-09T11:10:49.680Z,3.30
2023-08-09T11:13:56.134Z,7.53
2023-08-09T11:17:02.397Z,4.53
2023-08-09T11:20:14.910Z,4.07
2023-08-09T11:23:17.096Z,2.63
2023-08-09T11:26:19.234Z,9.43
2023-08-09T11:29:25.988Z,4.77
2023-08-09T11:32:32.974Z,5.33
2023-08-09T11:35:45.741Z,3.75
2023-08-09T11:38:47.863Z,2.83
2023-08-09T11:41:54.788Z,1.40
2023-08-09T11:44:57.174Z,2.80
2023-08-09T11:47:59.546Z,1.60
2023-08-09T11:51:07.123Z,2.58
2023-08-09T11:54:10.305Z,1.33
2023-08-09T11:57:12.557Z,2.45
2023-08-09T12:00:17.549Z,2.03
2023-08-09T12:03:23.420Z,1.93
2023-08-09T12:06:36.517Z,2.15
2023-08-09T12:09:38.422Z,2.63
2023-08-09T12:12:42.927Z,2.97
2023-08-09T12:15:45.025Z,1.97
2023-08-09T12:18:50.306Z,2.70
2023-08-09T12:21:55.239Z,5.53
2023-08-09T12:24:58.610Z,0.95
2023-08-09T12:28:05.276Z,1.15
2023-08-09T12:31:07.926Z,1.67
2023-08-09T12:34:11.879Z,4.27
2023-08-09T12:37:14.036Z,1.67
2023-08-09T12:40:16.713Z,5.35
2023-08-09T12:43:18.830Z,1.65
2023-08-09T12:46:20.993Z,1.40
2023-08-09T12:49:23.443Z,2.90
2023-08-09T12:52:25.402Z,3.28
2023-08-09T12:55:28.262Z,1.17
2023-08-09T12:58:31.527Z,1.63
2023-08-09T13:01:34.811Z,1.37
2023-08-09T13:04:38.040Z,4.57
2023-08-09T13:07:41.157Z,2.15
2023-08-09T13:10:43.368Z,1.95
2023-08-09T13:13:45.688Z,1.98
2023-08-09T13:16:50.921Z,2.57
2023-08-09T13:19:55.529Z,1.50
2023-08-09T13:22:57.776Z,4.22
2023-08-09T13:26:00.635Z,7.65
2023-08-09T13:29:02.999Z,2.00
2023-08-09T13:32:07.016Z,2.17
2023-08-09T13:35:10.425Z,1.23
2023-08-09T13:38:27.105Z,1.88
2023-08-09T13:41:29.161Z,1.65
2023-08-09T13:44:31.315Z,1.30
2023-08-09T13:47:33.809Z,3.33
2023-08-09T13:50:38.080Z,6.80
2023-08-09T13:53:39.983Z,3.00
2023-08-09T13:56:42.316Z,2.10
2023-08-09T13:59:46.483Z,2.08
2023-08-09T14:02:48.666Z,1.80
2023-08-09T14:05:53.031Z,2.00
2023-08-09T14:08:55.395Z,1.77
2023-08-09T14:11:57.678Z,2.35
2023-08-09T14:14:59.971Z,5.63
2023-08-09T14:18:02.011Z,1.30
2023-08-09T14:21:04.011Z,2.47
2023-08-09T14:24:07.269Z,3.88
2023-08-09T14:27:09.241Z,5.50
2023-08-09T14:30:11.604Z,4.45
2023-08-09T14:33:16.340Z,1.73
2023-08-09T14:36:18.444Z,5.10
2023-08-09T14:39:22.120Z,3.90
2023-08-09T14:42:24.379Z,3.70
2023-08-09T14:45:26.901Z,3.40
2023-08-09T14:48:29.755Z,4.10
2023-08-09T14:51:32.266Z,3.63
2023-08-09T14:54:38.866Z,3.17
2023-08-09T14:57:42.435Z,2.88
2023-08-09T15:00:47.502Z,2.38
2023-08-09T15:03:52.271Z,3.80
2023-08-09T15:06:55.237Z,2.23
2023-08-09T15:09:58.027Z,2.15
2023-08-09T15:13:00.644Z,2.53
2023-08-09T15:16:03.715Z,6.55
2023-08-09T15:19:05.703Z,2.03
2023-08-09T15:22:08.457Z,2.37
2023-08-09T15:25:20.106Z,1.27
2023-08-09T15:28:24.663Z,6.60
2023-08-09T15:31:27.149Z,2.58
2023-08-09T15:34:31.740Z,3.27
2023-08-09T15:37:35.906Z,2.43
2023-08-09T15:40:38.238Z,1.73
2023-08-09T15:43:46.042Z,1.42
2023-08-09T15:46:48.462Z,1.38
2023-08-09T15:49:52.257Z,1.67
2023-08-09T15:52:55.500Z,2.00
2023-08-09T15:55:58.781Z,2.40
2023-08-09T15:59:06.073Z,1.30
2023-08-09T16:02:09.052Z,1.27
2023-08-09T16:05:14.422Z,1.73
2023-08-09T16:08:19.184Z,3.27
2023-08-09T16:11:22.349Z,2.42
2023-08-09T16:14:24.791Z,1.80
2023-08-09T16:17:28.153Z,4.60
2023-08-09T16:20:35.274Z,4.93
2023-08-09T16:23:37.722Z,2.00
2023-08-09T16:26:42.508Z,2.30
2023-08-09T16:29:44.859Z,1.73
2023-08-09T16:32:47.347Z,4.00
2023-08-09T16:35:49.626Z,1.20
2023-08-09T16:38:51.697Z,1.43
2023-08-09T16:41:55.310Z,2.55
2023-08-09T16:44:57.554Z,2.70
2023-08-09T16:47:59.608Z,2.67
2023-08-09T16:51:01.767Z,3.00
2023-08-09T16:54:07.127Z,1.83
2023-08-09T16:57:09.214Z,8.02
2023-08-09T17:00:16.072Z,3.05
2023-08-09T17:03:20.518Z,2.67
2023-08-09T17:06:23.693Z,2.67
2023-08-09T17:09:28.089Z,3.20
2023-08-09T17:12:30.310Z,1.85
2023-08-09T17:15:33.723Z,2.95
2023-08-09T17:18:36.904Z,1.92
2023-08-09T17:21:40.601Z,4.20
2023-08-09T17:24:44.897Z,2.90
2023-08-09T17:27:47.536Z,4.68
2023-08-09T17:30:49.631Z,2.30
2023-08-09T17:33:52.408Z,4.43
2023-08-09T17:36:56.649Z,3.20
2023-08-09T17:39:58.633Z,2.43
2023-08-09T17:43:00.685Z,2.67
2023-08-09T17:46:02.766Z,4.90
2023-08-09T17:49:07.067Z,2.88
2023-08-09T17:52:09.095Z,4.77
2023-08-09T17:55:12.394Z,2.97
2023-08-09T17:58:15.412Z,2.97
2023-08-09T18:01:17.662Z,5.72
2023-08-09T18:04:21.380Z,4.45
2023-08-09T18:07:23.506Z,3.40
2023-08-09T18:10:25.553Z,3.23
2023-08-09T18:13:30.073Z,4.63
2023-08-09T18:16:33.408Z,8.13
2023-08-09T18:19:35.375Z,6.63
2023-08-09T18:22:37.385Z,3.77
2023-08-09T18:25:40.425Z,3.17
2023-08-09T18:28:46.200Z,5.60
2023-08-09T18:31:48.126Z,3.38
2023-08-09T18:34:50.964Z,4.30
2023-08-09T18:37:54.332Z,6.03
2023-08-09T18:40:57.633Z,4.60
2023-08-09T18:44:00.446Z,6.65
2023-08-09T18:47:03.812Z,3.88
2023-08-09T18:50:07.751Z,3.63
2023-08-09T18:53:13.829Z,3.07
2023-08-09T18:56:18.546Z,4.13
2023-08-09T18:59:21.053Z,3.00
2023-08-09T19:02:23.263Z,7.53
2023-08-09T19:05:26.609Z,4.95
2023-08-09T19:08:29.872Z,3.77
2023-08-09T19:11:32.528Z,3.13
2023-08-09T19:14:34.852Z,5.80
2023-08-09T19:17:40.582Z,6.55
2023-08-09T19:20:48.200Z,3.72
2023-08-09T19:23:52.166Z,4.53
2023-08-09T19:26:57.116Z,4.80
2023-08-09T19:30:00.780Z,5.80
2023-08-09T19:33:03.271Z,4.35
2023-08-09T19:36:08.463Z,5.30
2023-08-09T19:39:11.447Z,5.10
2023-08-09T19:42:13.544Z,5.10
2023-08-09T19:45:16.595Z,3.22
2023-08-09T19:48:18.677Z,4.28
2023-08-09T19:51:23.577Z,5.22
2023-08-09T19:54:25.659Z,4.50
2023-08-09T19:57:28.164Z,3.40
2023-08-09T20:00:30.425Z,4.28
2023-08-09T20:03:34.470Z,6.78
2023-08-09T20:06:37.369Z,3.30
2023-08-09T20:09:39.541Z,3.47
2023-08-09T20:12:41.844Z,3.00
2023-08-09T20:15:44.199Z,4.22
2023-08-09T20:18:46.393Z,4.00
2023-08-09T20:21:48.914Z,4.30
2023-08-09T20:24:51.061Z,4.07
2023-08-09T20:27:53.286Z,3.87
2023-08-09T20:30:56.266Z,3.30
2023-08-09T20:33:58.719Z,4.60
2023-08-09T20:37:01.316Z,5.70
2023-08-09T20:40:11.546Z,7.67
2023-08-09T20:43:13.937Z,3.40
2023-08-09T20:46:15.963Z,5.03
2023-08-09T20:49:18.251Z,3.42
2023-08-09T20:52:20.244Z,4.68
2023-08-09T20:55:22.309Z,4.47
2023-08-09T20:58:24.663Z,5.67
2023-08-09T21:01:28.371Z,4.47
2023-08-09T21:04:30.757Z,3.20
2023-08-09T21:07:32.882Z,3.03
2023-08-09T21:10:34.822Z,3.57
2023-08-09T21:13:36.666Z,3.67
2023-08-09T21:16:43.939Z,2.60
2023-08-09T21:19:48.320Z,2.80
2023-08-09T21:22:58.123Z,3.92
2023-08-09T21:26:01.817Z,3.03
2023-08-09T21:29:04.118Z,3.00
2023-08-09T21:32:06.956Z,3.30
2023-08-09T21:35:10.367Z,3.90
2023-08-09T21:38:15.888Z,3.13
2023-08-09T21:41:20.097Z,4.23
2023-08-09T21:44:22.143Z,2.97
2023-08-09T21:47:24.202Z,2.65
2023-08-09T21:50:27.322Z,4.10
2023-08-09T21:53:29.779Z,4.38
2023-08-09T21:56:31.827Z,2.97
2023-08-09T21:59:34.180Z,3.17
2023-08-09T22:02:36.298Z,3.25
2023-08-09T22:05:38.612Z,2.67
2023-08-09T22:08:41.134Z,9.77
2023-08-09T22:11:48.555Z,2.87
2023-08-09T22:15:01.748Z,2.27
2023-08-09T22:18:04.338Z,3.35
2023-08-09T22:21:06.418Z,2.15
2023-08-09T22:24:10.653Z,2.63
2023-08-09T22:27:12.785Z,2.57
2023-08-09T22:30:15.271Z,2.53
2023-08-09T22:33:17.528Z,4.07
2023-08-09T22:36:20.263Z,2.22
2023-08-09T22:39:23.808Z,2.33
2023-08-09T22:42:26.331Z,2.40
2023-08-09T22:45:31.547Z,3.73
2023-08-09T22:48:33.775Z,3.22
2023-08-09T22:51:36.143Z,2.05
2023-08-09T22:54:39.160Z,3.10
2023-08-09T22:57:41.261Z,2.83
2023-08-09T23:00:43.348Z,1.90
2023-08-09T23:03:45.818Z,2.50
2023-08-09T23:06:49.151Z,2.00
2023-08-09T23:09:50.992Z,2.10
2023-08-09T23:12:53.197Z,2.07
2023-08-09T23:15:56.426Z,5.50
2023-08-09T23:18:58.827Z,2.25
2023-08-09T23:22:01.165Z,2.08
2023-08-09T23:25:04.059Z,2.33
2023-08-09T23:28:06.372Z,2.27
2023-08-09T23:31:08.708Z,2.07
2023-08-09T23:34:13.098Z,2.47
2023-08-09T23:37:15.808Z,2.85
2023-08-09T23:40:19.123Z,3.17
2023-08-09T23:43:21.909Z,2.87
2023-08-09T23:46:23.846Z,3.17
2023-08-09T23:49:26.053Z,2.30
2023-08-09T23:52:30.559Z,2.50
2023-08-09T23:55:33.274Z,2.30
2023-08-09T23:58:36.036Z,2.40
